Time;durP1;ratioP1;P1;durP2;ratioP2;P2;SDS_P1;SDS_P2;PMS_P1;PMS_P2;Temp;Humidity;BMP_temperature;BMP_pressure;BME280_temperature;BME280_humidity;BME280_pressure;Samples;Min_cycle;Max_cycle;Signal;HPM_P1;HPM_P2
2021/08/15 00:05:07;;;;;;;14.07;12.02;;;;;;;;;;5134933;28;20088;-62
2021/08/15 00:11:08;;;;;;;17.65;12.18;;;;;;;;;;5134886;28;20422;-62
2021/08/15 00:17:08;;;;;;;15.05;12.15;;;;;;;;;;5134806;28;20034;-62
2021/08/15 00:23:09;;;;;;;14.55;11.13;;;;;;;;;;5134506;28;20030;-62
2021/08/15 00:29:09;;;;;;;13.38;11.98;;;;;;;;;;5134931;28;20042;-62
2021/08/15 00:35:09;;;;;;;13.25;11.45;;;;;;;;;;5134398;28;20031;-62
2021/08/15 00:41:09;;;;;;;12.57;10.55;;;;;;;;;;5134606;28;20148;-61
2021/08/15 00:47:09;;;;;;;11.07;9.77;;;;;;;;;;5134537;28;20377;-62
2021/08/15 00:56:20;;;;;;;14.73;11.10;;;;;;;;;;5134450;28;20058;-61
2021/08/15 01:02:23;;;;;;;13.73;11.18;;;;;;;;;;5134388;28;20085;-62
2021/08/15 01:08:23;;;;;;;12.68;11.18;;;;;;;;;;5134083;28;20080;-62
2021/08/15 01:14:24;;;;;;;14.88;11.52;;;;;;;;;;5136531;27;20523;-61
2021/08/15 01:20:25;;;;;;;13.98;11.68;;;;;;;;;;5137599;27;20114;-62
2021/08/15 01:26:26;;;;;;;14.25;11.85;;;;;;;;;;5137716;27;20053;-62
2021/08/15 01:32:27;;;;;;;13.07;11.77;;;;;;;;;;5137523;27;20034;-61
2021/08/15 05:17:27;;;;;;;15.60;11.77;;;;;;;;;;5113572;28;20190;-62
2021/08/15 05:19:53;;;;;;;14.30;12.18;;;;;;;;;;5116407;28;20134;-62
2021/08/15 05:22:18;;;;;;;21.35;13.05;;;;;;;;;;5116419;28;20440;-62
2021/08/15 05:24:44;;;;;;;14.25;12.05;;;;;;;;;;5116382;28;20110;-62
2021/08/15 05:27:09;;;;;;;14.65;12.70;;;;;;;;;;5116429;28;20044;-62
2021/08/15 05:29:34;;;;;;;17.25;12.68;;;;;;;;;;5116275;28;20031;-62
2021/08/15 05:32:00;;;;;;;17.73;12.82;;;;;;;;;;5116321;28;20035;-62
2021/08/15 05:34:26;;;;;;;18.23;13.95;;;;;;;;;;5116185;28;20096;-62
2021/08/15 05:36:51;;;;;;;17.58;13.98;;;;;;;;;;5116116;28;20035;-62
2021/08/15 05:39:17;;;;;;;16.70;14.85;;;;;;;;;;5115902;28;20160;-62
2021/08/15 05:41:42;;;;;;;18.92;15.68;;;;;;;;;;5116101;28;20027;-62
2021/08/15 05:44:07;;;;;;;18.08;15.65;;;;;;;;;;5097776;28;20462;-62
2021/08/15 05:46:33;;;;;;;21.40;15.88;;;;;;;;;;5115964;28;20027;-62
2021/08/15 05:48:58;;;;;;;19.90;16.38;;;;;;;;;;5115992;28;20031;-61
2021/08/15 05:51:24;;;;;;;22.48;14.98;;;;;;;;;;5116002;28;20427;-61
2021/08/15 05:53:49;;;;;;;18.70;15.52;;;;;;;;;;5115820;28;20046;-62
2021/08/15 05:56:15;;;;;;;19.92;15.30;;;;;;;;;;5115770;28;20031;-62
2021/08/15 05:58:40;;;;;;;23.05;16.05;;;;;;;;;;5115016;28;20027;-62
2021/08/15 06:01:05;;;;;;;22.13;15.55;;;;;;;;;;5115583;28;20458;-62
2021/08/15 06:03:31;;;;;;;20.85;14.95;;;;;;;;;;5115665;28;20409;-62
2021/08/15 06:05:56;;;;;;;19.30;13.55;;;;;;;;;;5115668;28;20465;-62
2021/08/15 06:08:22;;;;;;;18.30;14.40;;;;;;;;;;5097329;28;20035;-62
2021/08/15 06:10:47;;;;;;;20.77;14.27;;;;;;;;;;5115633;28;20058;-62
2021/08/15 06:13:15;;;;;;;23.98;15.07;;;;;;;;;;5115444;28;20040;-61
2021/08/15 06:15:40;;;;;;;24.02;15.15;;;;;;;;;;5115477;28;20032;-62
2021/08/15 06:18:06;;;;;;;20.80;13.75;;;;;;;;;;5115104;28;20177;-62
2021/08/15 06:20:31;;;;;;;17.13;13.20;;;;;;;;;;5096992;28;20052;-62
2021/08/15 06:22:56;;;;;;;18.02;12.85;;;;;;;;;;5115170;28;20043;-62
2021/08/15 06:25:22;;;;;;;18.55;13.43;;;;;;;;;;5115228;28;20028;-62
2021/08/15 06:27:47;;;;;;;19.13;14.13;;;;;;;;;;5096944;28;20032;-62
2021/08/15 06:30:14;;;;;;;20.48;13.40;;;;;;;;;;5115114;28;20500;-62
2021/08/15 06:32:43;;;;;;;15.52;12.73;;;;;;;;;;5115064;28;20027;-62
2021/08/15 06:35:09;;;;;;;16.00;11.70;;;;;;;;;;5080007;28;20034;-61
2021/08/15 06:37:34;;;;;;;15.77;11.57;;;;;;;;;;5114969;28;20098;-62
2021/08/15 06:40:00;;;;;;;17.08;11.68;;;;;;;;;;5114886;28;20038;-62
2021/08/15 06:42:25;;;;;;;14.35;10.25;;;;;;;;;;5114860;28;20069;-62
2021/08/15 06:44:52;;;;;;;14.45;9.88;;;;;;;;;;5114719;28;20035;-62
2021/08/15 06:47:17;;;;;;;14.30;10.57;;;;;;;;;;5114717;28;20034;-62
2021/08/15 06:49:42;;;;;;;13.50;10.50;;;;;;;;;;5114703;28;20040;-62
2021/08/15 06:52:08;;;;;;;13.85;10.45;;;;;;;;;;5114690;28;20057;-62
2021/08/15 06:54:33;;;;;;;13.20;9.82;;;;;;;;;;5096317;28;20130;-62
2021/08/15 06:56:58;;;;;;;12.98;9.52;;;;;;;;;;5114489;28;20024;-62
2021/08/15 06:59:24;;;;;;;13.70;10.27;;;;;;;;;;5114470;28;20048;-62
2021/08/15 07:01:49;;;;;;;16.65;10.77;;;;;;;;;;5096308;28;20055;-62
2021/08/15 07:04:15;;;;;;;15.77;10.88;;;;;;;;;;5114517;28;20032;-62
2021/08/15 07:06:40;;;;;;;14.52;10.68;;;;;;;;;;5114653;28;20023;-62
2021/08/15 07:09:06;;;;;;;15.98;11.50;;;;;;;;;;5114356;28;20106;-62
2021/08/15 07:11:31;;;;;;;15.18;11.02;;;;;;;;;;5096052;28;20035;-62
2021/08/15 07:13:56;;;;;;;16.27;11.52;;;;;;;;;;5114203;28;20058;-62
2021/08/15 07:16:22;;;;;;;13.80;9.80;;;;;;;;;;5095631;28;20067;-62
2021/08/15 07:18:48;;;;;;;14.55;11.18;;;;;;;;;;5096247;28;20500;-62
2021/08/15 07:21:13;;;;;;;13.55;10.88;;;;;;;;;;5114046;28;20058;-62
2021/08/15 07:23:39;;;;;;;13.68;9.75;;;;;;;;;;5114040;28;20035;-62
2021/08/15 07:26:04;;;;;;;12.05;9.45;;;;;;;;;;5095956;28;20034;-62
2021/08/15 07:28:30;;;;;;;13.55;10.27;;;;;;;;;;5114023;28;20401;-62
2021/08/15 07:30:55;;;;;;;15.73;10.55;;;;;;;;;;5095835;28;20020;-62
2021/08/15 07:33:21;;;;;;;14.90;10.35;;;;;;;;;;5114174;28;20071;-62
2021/08/15 07:35:46;;;;;;;13.73;10.32;;;;;;;;;;5113962;28;20036;-62
2021/08/15 07:38:12;;;;;;;11.75;10.25;;;;;;;;;;5113873;28;20062;-62
2021/08/15 07:40:39;;;;;;;11.95;9.88;;;;;;;;;;5113841;28;20101;-62
2021/08/15 07:43:04;;;;;;;12.43;9.00;;;;;;;;;;5113839;28;20032;-62
2021/08/15 07:45:33;;;;;;;14.65;9.88;;;;;;;;;;5113887;28;20055;-61
2021/08/15 07:48:00;;;;;;;10.48;9.45;;;;;;;;;;5113835;28;20035;-61
2021/08/15 07:50:26;;;;;;;12.48;8.30;;;;;;;;;;5113777;28;20062;-62
2021/08/15 07:52:51;;;;;;;9.52;8.52;;;;;;;;;;5113620;28;20046;-62
2021/08/15 07:55:17;;;;;;;10.85;8.20;;;;;;;;;;5095513;28;20067;-62
2021/08/15 07:57:42;;;;;;;11.40;8.95;;;;;;;;;;5113441;28;20042;-62
2021/08/15 08:00:08;;;;;;;11.45;8.48;;;;;;;;;;5113552;28;20035;-62
2021/08/15 08:02:34;;;;;;;13.88;8.82;;;;;;;;;;5113494;28;20088;-62
2021/08/15 08:04:59;;;;;;;11.88;8.75;;;;;;;;;;5113223;28;20110;-62
2021/08/15 08:07:25;;;;;;;13.95;9.63;;;;;;;;;;5113651;28;20046;-62
2021/08/15 08:09:51;;;;;;;14.57;9.75;;;;;;;;;;5095397;28;20027;-62
2021/08/15 08:12:17;;;;;;;11.05;8.23;;;;;;;;;;5113533;28;20097;-62
2021/08/15 08:14:42;;;;;;;10.07;8.32;;;;;;;;;;5113516;28;20039;-62
2021/08/15 08:17:09;;;;;;;15.68;8.05;;;;;;;;;;5112847;28;20440;-63
2021/08/15 08:19:34;;;;;;;11.80;8.10;;;;;;;;;;5113191;28;20039;-62
2021/08/15 08:22:00;;;;;;;10.75;7.00;;;;;;;;;;5113891;28;20573;-62
2021/08/15 08:24:25;;;;;;;8.60;7.68;;;;;;;;;;5117598;28;20097;-62
2021/08/15 08:26:51;;;;;;;9.38;7.07;;;;;;;;;;5117608;28;20386;-62
2021/08/15 08:29:16;;;;;;;7.30;6.60;;;;;;;;;;5117379;28;20130;-62
2021/08/15 08:31:41;;;;;;;8.10;7.20;;;;;;;;;;5117369;28;20035;-62
2021/08/15 08:34:07;;;;;;;8.63;5.85;;;;;;;;;;5099022;28;20043;-62
2021/08/15 08:36:32;;;;;;;7.25;6.55;;;;;;;;;;5117294;28;20027;-62
2021/08/15 08:38:58;;;;;;;8.43;6.47;;;;;;;;;;5117163;28;20600;-62
2021/08/15 08:41:23;;;;;;;6.88;6.22;;;;;;;;;;5117387;28;20034;-62
2021/08/15 08:43:49;;;;;;;7.03;6.32;;;;;;;;;;5098997;28;20466;-62
2021/08/15 08:46:15;;;;;;;6.18;5.68;;;;;;;;;;5117197;28;20040;-62
2021/08/15 08:48:40;;;;;;;7.43;6.78;;;;;;;;;;5098931;28;20038;-62
2021/08/15 08:51:06;;;;;;;6.57;5.97;;;;;;;;;;5117068;28;20031;-62
2021/08/15 08:53:35;;;;;;;7.05;6.35;;;;;;;;;;5098755;28;20511;-62
2021/08/15 08:56:01;;;;;;;6.72;5.55;;;;;;;;;;5117122;28;20570;-61
2021/08/15 08:58:26;;;;;;;6.43;5.93;;;;;;;;;;5116486;28;20118;-62
2021/08/15 09:00:51;;;;;;;6.38;5.78;;;;;;;;;;5116930;28;20123;-62
2021/08/15 09:03:17;;;;;;;8.35;5.80;;;;;;;;;;5116897;28;20385;-62
2021/08/15 09:05:53;;;;;;;7.13;6.43;;;;;;;;;;5116830;28;20031;-62
2021/08/15 09:08:26;;;;;;;7.03;6.40;;;;;;;;;;5116885;28;20043;-62
2021/08/15 09:10:52;;;;;;;8.25;6.35;;;;;;;;;;5116629;28;20042;-62
2021/08/15 09:13:23;;;;;;;7.72;6.00;;;;;;;;;;5116545;28;20106;-62
2021/08/15 09:15:56;;;;;;;6.70;6.15;;;;;;;;;;5116599;28;20493;-62
2021/08/15 09:18:31;;;;;;;7.03;6.40;;;;;;;;;;5098184;28;20048;-62
2021/08/15 09:20:57;;;;;;;6.55;5.93;;;;;;;;;;5116610;28;20521;-62
2021/08/15 09:23:24;;;;;;;8.55;6.30;;;;;;;;;;5116563;28;20032;-62
2021/08/15 09:26:08;;;;;;;6.65;6.05;;;;;;;;;;5116451;28;20031;-62
2021/08/15 09:28:34;;;;;;;6.85;6.18;;;;;;;;;;5116344;28;20032;-62
2021/08/15 09:31:13;;;;;;;7.25;6.38;;;;;;;;;;5116475;28;20546;-62
2021/08/15 09:33:40;;;;;;;6.80;6.20;;;;;;;;;;5115264;28;20035;-62
2021/08/15 09:36:08;;;;;;;6.97;6.35;;;;;;;;;;5116145;28;20036;-62
2021/08/15 09:38:40;;;;;;;9.90;7.38;;;;;;;;;;5116274;28;20031;-62
2021/08/15 09:41:20;;;;;;;7.90;7.07;;;;;;;;;;5116264;28;20040;-62
2021/08/15 09:43:46;;;;;;;10.02;7.32;;;;;;;;;;5097961;28;20386;-62
2021/08/15 09:46:11;;;;;;;7.93;7.10;;;;;;;;;;5097635;28;20038;-62
2021/08/15 09:48:37;;;;;;;8.00;6.30;;;;;;;;;;5097821;28;20043;-62
2021/08/15 09:51:04;;;;;;;8.30;5.80;;;;;;;;;;5097531;28;20384;-62
2021/08/15 09:53:30;;;;;;;7.28;6.57;;;;;;;;;;5115977;28;20138;-62
2021/08/15 09:55:57;;;;;;;7.50;6.72;;;;;;;;;;5115936;28;20128;-62
2021/08/15 09:58:22;;;;;;;6.90;6.07;;;;;;;;;;5097375;28;20438;-62
2021/08/15 10:00:48;;;;;;;7.65;6.38;;;;;;;;;;5115717;28;20089;-62
2021/08/15 10:03:14;;;;;;;7.18;6.43;;;;;;;;;;5115729;28;20023;-62
2021/08/15 10:05:40;;;;;;;7.70;7.05;;;;;;;;;;5097484;28;20413;-62
2021/08/15 10:08:06;;;;;;;8.30;7.38;;;;;;;;;;5115726;28;20023;-62
2021/08/15 10:10:31;;;;;;;8.65;7.82;;;;;;;;;;5097429;28;20031;-62
2021/08/15 10:12:58;;;;;;;9.82;7.55;;;;;;;;;;5115538;28;20089;-62
2021/08/15 10:15:23;;;;;;;8.65;7.68;;;;;;;;;;5097186;28;20046;-62
2021/08/15 10:17:50;;;;;;;8.93;8.02;;;;;;;;;;5096945;28;20039;-62
2021/08/15 10:20:27;;;;;;;8.25;7.15;;;;;;;;;;5115344;28;20036;-62
2021/08/15 10:23:02;;;;;;;7.88;6.45;;;;;;;;;;5115345;28;20063;-62
2021/08/15 10:25:32;;;;;;;7.78;6.35;;;;;;;;;;5115356;28;20104;-62
2021/08/15 10:27:57;;;;;;;8.07;6.78;;;;;;;;;;5115216;28;20031;-62
2021/08/15 10:30:24;;;;;;;11.13;7.45;;;;;;;;;;5115139;28;20015;-62
2021/08/15 10:32:55;;;;;;;9.98;7.63;;;;;;;;;;5096777;28;20496;-62
2021/08/15 10:35:24;;;;;;;8.50;7.25;;;;;;;;;;5096843;28;20140;-62
2021/08/15 10:38:10;;;;;;;8.48;7.15;;;;;;;;;;5114943;28;20024;-62
2021/08/15 10:40:38;;;;;;;9.63;7.90;;;;;;;;;;5097264;28;20401;-62
2021/08/15 10:43:04;;;;;;;9.90;7.95;;;;;;;;;;5096609;28;20024;-62
2021/08/15 10:45:29;;;;;;;17.20;10.13;;;;;;;;;;5114518;28;20493;-62
2021/08/15 10:48:10;;;;;;;11.77;8.57;;;;;;;;;;5096571;28;20016;-62
2021/08/15 10:50:45;;;;;;;8.25;7.30;;;;;;;;;;5114888;28;20089;-62
2021/08/15 10:53:25;;;;;;;8.63;6.57;;;;;;;;;;5114763;28;20035;-62
2021/08/15 10:55:51;;;;;;;10.10;7.60;;;;;;;;;;5114638;28;20043;-62
2021/08/15 10:58:39;;;;;;;10.95;8.30;;;;;;;;;;5114433;28;20024;-62
2021/08/15 11:01:09;;;;;;;8.90;8.00;;;;;;;;;;5096589;28;20462;-62
2021/08/15 11:03:34;;;;;;;;;;;;;;;;;;5096877;28;20546;-62
2021/08/15 11:06:02;;;;;;;10.88;8.10;;;;;;;;;;5114589;28;19946;-62
2021/08/15 11:08:30;;;;;;;8.07;7.28;;;;;;;;;;5114322;28;20500;-62
2021/08/15 11:11:02;;;;;;;9.45;7.75;;;;;;;;;;5114355;28;20111;-62
2021/08/15 11:13:28;;;;;;;8.30;7.55;;;;;;;;;;5114289;28;20032;-62
2021/08/15 11:15:53;;;;;;;8.95;7.72;;;;;;;;;;5114108;28;20050;-62
2021/08/15 11:18:19;;;;;;;12.18;7.88;;;;;;;;;;5114254;28;20389;-61
2021/08/15 11:20:49;;;;;;;8.00;6.60;;;;;;;;;;5114156;28;20031;-62
2021/08/15 11:23:19;;;;;;;10.77;7.43;;;;;;;;;;5114066;28;20042;-62
2021/08/15 11:25:45;;;;;;;7.28;6.63;;;;;;;;;;5114284;28;20105;-62
2021/08/15 11:28:11;;;;;;;8.90;6.82;;;;;;;;;;5096014;28;20432;-62
2021/08/15 11:30:37;;;;;;;8.48;7.28;;;;;;;;;;5095770;28;20040;-62
2021/08/15 11:33:06;;;;;;;8.45;6.82;;;;;;;;;;5114006;28;20031;-62
2021/08/15 11:35:32;;;;;;;7.85;6.88;;;;;;;;;;5113936;28;20063;-62
2021/08/15 11:37:58;;;;;;;7.97;7.18;;;;;;;;;;5113823;28;20067;-63
2021/08/15 11:40:25;;;;;;;7.82;7.10;;;;;;;;;;5113837;28;20070;-62
2021/08/15 11:42:56;;;;;;;7.60;6.82;;;;;;;;;;5113699;28;20127;-62
2021/08/15 11:45:26;;;;;;;8.55;6.03;;;;;;;;;;5113752;28;20512;-62
2021/08/15 11:47:52;;;;;;;7.22;6.57;;;;;;;;;;5113902;28;20040;-62
2021/08/15 11:50:19;;;;;;;7.43;6.60;;;;;;;;;;5113757;28;20023;-62
2021/08/15 11:52:45;;;;;;;8.07;6.68;;;;;;;;;;5113644;28;20054;-62
2021/08/15 11:55:18;;;;;;;8.00;7.20;;;;;;;;;;5113682;28;20141;-62
2021/08/15 11:57:54;;;;;;;7.07;6.47;;;;;;;;;;5112928;28;20032;-62
2021/08/15 12:00:26;;;;;;;8.93;6.25;;;;;;;;;;5113713;28;20538;-63
2021/08/15 12:03:02;;;;;;;11.32;6.93;;;;;;;;;;5113669;28;20031;-62
2021/08/15 12:05:27;;;;;;;7.00;6.40;;;;;;;;;;5095332;28;20088;-62
2021/08/15 12:07:53;;;;;;;7.25;6.20;;;;;;;;;;5113456;28;20023;-62
2021/08/15 12:10:29;;;;;;;8.02;6.68;;;;;;;;;;5078496;28;20367;-62
2021/08/15 12:13:10;;;;;;;7.40;6.70;;;;;;;;;;5113632;28;20119;-62
2021/08/15 12:15:35;;;;;;;7.55;6.43;;;;;;;;;;5113410;28;20439;-62
2021/08/15 12:18:01;;;;;;;7.57;6.70;;;;;;;;;;5113243;28;20131;-62
2021/08/15 12:20:26;;;;;;;9.13;6.30;;;;;;;;;;5113340;28;20031;-62
2021/08/15 12:22:52;;;;;;;6.97;6.38;;;;;;;;;;5113407;28;20039;-62
2021/08/15 12:25:22;;;;;;;7.05;6.13;;;;;;;;;;5113318;28;20511;-62
2021/08/15 12:27:48;;;;;;;6.68;6.03;;;;;;;;;;5113333;28;20086;-62
2021/08/15 12:30:26;;;;;;;6.97;6.13;;;;;;;;;;5113445;28;20035;-62
2021/08/15 12:32:51;;;;;;;7.40;6.50;;;;;;;;;;5113533;28;20105;-62
2021/08/15 12:35:23;;;;;;;5.82;5.32;;;;;;;;;;5113129;28;20477;-62
2021/08/15 12:37:48;;;;;;;5.55;5.05;;;;;;;;;;5113381;28;20114;-62
2021/08/15 12:40:15;;;;;;;5.40;4.85;;;;;;;;;;5094973;28;20529;-62
2021/08/15 12:42:51;;;;;;;6.03;4.72;;;;;;;;;;5113168;28;20505;-62
2021/08/15 12:45:28;;;;;;;5.20;4.80;;;;;;;;;;5095138;28;20035;-62
2021/08/15 12:47:58;;;;;;;5.53;4.40;;;;;;;;;;5113406;28;20077;-62
2021/08/15 12:50:24;;;;;;;5.13;4.27;;;;;;;;;;5078052;28;20023;-62
2021/08/15 12:52:49;;;;;;;4.68;4.28;;;;;;;;;;5113084;28;20276;-62
2021/08/15 12:55:24;;;;;;;4.53;4.05;;;;;;;;;;5095006;28;20097;-62
2021/08/15 12:57:49;;;;;;;3.85;3.55;;;;;;;;;;5113070;28;20032;-62
2021/08/15 13:00:17;;;;;;;3.65;3.45;;;;;;;;;;5113023;28;20531;-62
2021/08/15 13:02:44;;;;;;;4.03;3.80;;;;;;;;;;5113078;28;20497;-62
2021/08/15 13:05:09;;;;;;;3.90;3.60;;;;;;;;;;5113039;28;20031;-62
2021/08/15 13:07:35;;;;;;;3.75;3.45;;;;;;;;;;5112952;28;20469;-62
2021/08/15 13:10:01;;;;;;;4.18;3.75;;;;;;;;;;5116487;28;20043;-62
2021/08/15 13:12:26;;;;;;;3.60;3.30;;;;;;;;;;5116718;28;20035;-62
2021/08/15 13:14:52;;;;;;;3.80;3.45;;;;;;;;;;5116622;28;20035;-62
2021/08/15 13:17:17;;;;;;;4.22;3.92;;;;;;;;;;5116004;28;20452;-62
2021/08/15 13:19:43;;;;;;;3.85;3.55;;;;;;;;;;5116410;28;20046;-62
2021/08/15 13:22:09;;;;;;;5.18;3.97;;;;;;;;;;5116522;28;20032;-62
2021/08/15 13:24:35;;;;;;;4.30;3.90;;;;;;;;;;5116491;28;20057;-62
2021/08/15 13:27:01;;;;;;;4.57;4.03;;;;;;;;;;5098268;28;20057;-62
2021/08/15 13:29:26;;;;;;;5.10;4.30;;;;;;;;;;5116586;28;20035;-62
2021/08/15 13:31:51;;;;;;;3.97;3.67;;;;;;;;;;5097823;28;20084;-62
2021/08/15 13:34:17;;;;;;;4.25;3.95;;;;;;;;;;5116228;28;20090;-62
2021/08/15 13:36:42;;;;;;;5.68;3.90;;;;;;;;;;5116226;28;20534;-62
2021/08/15 13:39:08;;;;;;;4.53;4.13;;;;;;;;;;5116096;28;20485;-62
2021/08/15 13:41:33;;;;;;;4.88;4.35;;;;;;;;;;5116243;28;20112;-63
2021/08/15 13:43:59;;;;;;;4.18;3.88;;;;;;;;;;5116056;28;20030;-62
2021/08/15 13:46:25;;;;;;;4.47;4.13;;;;;;;;;;5097815;28;20103;-62
2021/08/15 13:48:50;;;;;;;4.40;4.10;;;;;;;;;;5116045;28;20031;-62
2021/08/15 13:51:15;;;;;;;4.28;3.88;;;;;;;;;;5116169;28;20077;-62
2021/08/15 13:53:41;;;;;;;4.45;4.15;;;;;;;;;;5097897;28;20054;-62
2021/08/15 13:56:06;;;;;;;4.53;4.13;;;;;;;;;;5115973;28;20032;-62
2021/08/15 13:58:32;;;;;;;5.07;4.07;;;;;;;;;;5115787;28;20048;-62
2021/08/15 14:00:58;;;;;;;4.43;4.13;;;;;;;;;;5097489;28;20019;-62
2021/08/15 14:03:24;;;;;;;5.38;3.97;;;;;;;;;;5115752;28;20038;-63
2021/08/15 14:05:49;;;;;;;4.53;4.20;;;;;;;;;;5115705;28;20036;-62
2021/08/15 14:08:15;;;;;;;4.93;4.45;;;;;;;;;;5115609;28;20062;-62
2021/08/15 14:10:41;;;;;;;5.35;4.43;;;;;;;;;;5097415;28;20042;-62
2021/08/15 14:13:07;;;;;;;4.72;4.28;;;;;;;;;;5115503;28;20180;-62
2021/08/15 14:15:33;;;;;;;4.68;4.38;;;;;;;;;;5115339;28;20122;-62
2021/08/15 14:17:58;;;;;;;4.82;4.43;;;;;;;;;;5115163;28;20120;-62
2021/08/15 14:20:24;;;;;;;4.57;4.15;;;;;;;;;;5114673;28;20587;-62
2021/08/15 14:22:49;;;;;;;5.63;4.45;;;;;;;;;;5115271;28;20028;-62
2021/08/15 14:25:15;;;;;;;5.30;4.82;;;;;;;;;;5115024;28;20059;-62
2021/08/15 14:27:40;;;;;;;4.75;4.35;;;;;;;;;;5115455;28;20036;-62
2021/08/15 14:30:06;;;;;;;4.95;4.53;;;;;;;;;;5097041;28;20039;-62
2021/08/15 14:32:33;;;;;;;5.40;4.25;;;;;;;;;;5115098;28;20470;-62
2021/08/15 14:35:02;;;;;;;5.07;4.68;;;;;;;;;;5115192;28;20059;-62
2021/08/15 14:37:27;;;;;;;5.00;4.53;;;;;;;;;;5115059;28;20229;-62
2021/08/15 14:39:53;;;;;;;4.82;4.53;;;;;;;;;;5114951;28;20566;-62
2021/08/15 14:42:18;;;;;;;5.10;4.35;;;;;;;;;;5114956;28;20039;-62
2021/08/15 14:44:44;;;;;;;5.10;4.60;;;;;;;;;;5096776;28;20037;-62
2021/08/15 14:47:09;;;;;;;4.75;4.45;;;;;;;;;;5114751;28;20381;-62
2021/08/15 14:49:35;;;;;;;4.65;4.25;;;;;;;;;;5114685;28;20035;-62
2021/08/15 14:52:00;;;;;;;5.47;4.90;;;;;;;;;;5114923;28;20034;-62
2021/08/15 14:54:26;;;;;;;5.55;5.05;;;;;;;;;;5114855;28;20039;-62
2021/08/15 14:56:52;;;;;;;5.00;4.57;;;;;;;;;;5114787;28;20452;-62
2021/08/15 14:59:17;;;;;;;4.80;4.40;;;;;;;;;;5114543;28;20067;-62
2021/08/15 15:01:43;;;;;;;4.43;4.13;;;;;;;;;;5114562;28;20158;-62
2021/08/15 15:04:08;;;;;;;4.60;4.28;;;;;;;;;;5114540;28;20474;-62
2021/08/15 15:06:35;;;;;;;5.53;4.40;;;;;;;;;;5114704;28;20055;-62
2021/08/15 15:09:01;;;;;;;4.80;4.40;;;;;;;;;;5114606;28;20040;-62
2021/08/15 15:11:26;;;;;;;5.03;4.55;;;;;;;;;;5114428;28;20030;-62
2021/08/15 15:13:52;;;;;;;4.15;3.85;;;;;;;;;;5096055;28;20129;-62
2021/08/15 15:16:17;;;;;;;5.38;4.55;;;;;;;;;;5113953;28;20050;-62
2021/08/15 15:18:43;;;;;;;4.90;4.28;;;;;;;;;;5096045;28;20504;-62
2021/08/15 15:21:08;;;;;;;5.10;4.63;;;;;;;;;;5114168;28;20039;-62
2021/08/15 15:23:33;;;;;;;5.72;4.45;;;;;;;;;;5114278;28;20044;-62
2021/08/15 15:25:59;;;;;;;4.28;3.88;;;;;;;;;;5114199;28;20115;-62
2021/08/15 15:28:24;;;;;;;4.57;4.18;;;;;;;;;;5114173;28;20123;-62
2021/08/15 15:30:50;;;;;;;4.55;4.25;;;;;;;;;;5095812;28;20055;-62
2021/08/15 15:33:15;;;;;;;4.32;4.03;;;;;;;;;;5113133;28;20393;-62
2021/08/15 15:35:41;;;;;;;4.53;4.13;;;;;;;;;;5114027;28;20070;-62
2021/08/15 15:38:06;;;;;;;4.93;4.18;;;;;;;;;;5113965;28;20031;-62
2021/08/15 15:40:32;;;;;;;4.78;4.38;;;;;;;;;;5113958;28;20374;-62
2021/08/15 15:42:58;;;;;;;4.43;4.03;;;;;;;;;;5113907;28;20056;-62
2021/08/15 15:45:23;;;;;;;4.18;3.88;;;;;;;;;;5113845;28;20043;-62
2021/08/15 15:47:49;;;;;;;4.10;3.90;;;;;;;;;;5113786;28;20024;-62
2021/08/15 15:50:15;;;;;;;5.22;4.20;;;;;;;;;;5113677;28;20559;-62
2021/08/15 15:52:40;;;;;;;5.72;3.97;;;;;;;;;;5113757;28;20369;-62
2021/08/15 15:55:07;;;;;;;4.80;4.05;;;;;;;;;;5113559;28;20047;-62
2021/08/15 15:57:32;;;;;;;4.85;4.03;;;;;;;;;;5095496;28;20063;-62
2021/08/15 15:59:58;;;;;;;4.32;3.95;;;;;;;;;;5095359;28;20496;-63
2021/08/15 16:02:23;;;;;;;4.65;4.30;;;;;;;;;;5095447;28;20486;-62
2021/08/15 16:04:49;;;;;;;5.45;4.22;;;;;;;;;;5113547;28;20063;-62
2021/08/15 16:07:14;;;;;;;4.35;3.95;;;;;;;;;;5113581;28;20034;-62
2021/08/15 16:09:43;;;;;;;4.47;4.00;;;;;;;;;;5113516;28;20036;-62
2021/08/15 16:12:12;;;;;;;4.38;3.97;;;;;;;;;;5113513;28;20027;-62
2021/08/15 16:14:38;;;;;;;5.95;4.40;;;;;;;;;;5113489;28;20035;-62
2021/08/15 16:17:04;;;;;;;5.05;4.60;;;;;;;;;;5113061;28;20508;-62
2021/08/15 16:19:30;;;;;;;5.10;4.60;;;;;;;;;;5113442;28;20043;-62
2021/08/15 16:21:55;;;;;;;5.75;5.20;;;;;;;;;;5113370;28;20032;-62
2021/08/15 16:24:20;;;;;;;6.50;4.90;;;;;;;;;;5113202;28;20031;-62
2021/08/15 16:26:47;;;;;;;6.22;4.85;;;;;;;;;;5113501;28;20035;-63
2021/08/15 16:29:12;;;;;;;4.93;4.50;;;;;;;;;;5113401;28;20047;-62
2021/08/15 16:31:38;;;;;;;4.50;4.20;;;;;;;;;;5113617;28;20061;-62
2021/08/15 16:34:03;;;;;;;6.35;4.50;;;;;;;;;;5113682;28;20047;-62
2021/08/15 16:36:29;;;;;;;7.63;5.72;;;;;;;;;;5113554;28;20036;-62
2021/08/15 16:38:54;;;;;;;8.80;5.05;;;;;;;;;;5113404;28;20031;-62
2021/08/15 16:41:20;;;;;;;5.55;4.50;;;;;;;;;;5113523;28;20016;-62
2021/08/15 16:43:45;;;;;;;8.95;5.57;;;;;;;;;;5115500;28;20040;-62
2021/08/15 16:46:11;;;;;;;5.55;4.97;;;;;;;;;;5117518;28;20059;-63
2021/08/15 16:48:36;;;;;;;6.40;5.03;;;;;;;;;;5117594;28;20032;-62
2021/08/15 16:51:02;;;;;;;8.98;5.55;;;;;;;;;;5117193;28;20066;-63
2021/08/15 16:53:27;;;;;;;8.30;4.78;;;;;;;;;;5117442;28;20058;-62
2021/08/15 16:55:53;;;;;;;6.88;5.00;;;;;;;;;;5117132;28;20081;-62
2021/08/15 16:58:19;;;;;;;7.03;4.85;;;;;;;;;;5117191;28;20023;-62
2021/08/15 17:00:47;;;;;;;11.63;5.20;;;;;;;;;;5117555;28;20031;-62
2021/08/15 17:03:12;;;;;;;9.95;5.35;;;;;;;;;;5098948;28;20111;-63
2021/08/15 17:05:38;;;;;;;6.20;4.60;;;;;;;;;;5117201;28;20028;-62
2021/08/15 17:08:04;;;;;;;8.27;4.70;;;;;;;;;;5098926;28;20378;-62
2021/08/15 17:10:30;;;;;;;4.85;4.43;;;;;;;;;;5117133;28;20036;-63
2021/08/15 17:12:56;;;;;;;5.97;4.28;;;;;;;;;;5098872;28;20028;-62
2021/08/15 17:15:23;;;;;;;5.63;4.63;;;;;;;;;;5116976;28;20386;-62
2021/08/15 17:17:49;;;;;;;5.30;4.45;;;;;;;;;;5098400;28;20505;-62
2021/08/15 17:20:15;;;;;;;14.95;7.88;;;;;;;;;;5116501;28;20043;-63
2021/08/15 17:22:40;;;;;;;20.33;9.38;;;;;;;;;;5115760;28;20469;-62
2021/08/15 17:25:07;;;;;;;16.75;7.93;;;;;;;;;;5116298;28;20034;-62
2021/08/15 17:27:33;;;;;;;13.10;7.03;;;;;;;;;;5116680;28;20043;-62
2021/08/15 17:29:59;;;;;;;14.40;7.65;;;;;;;;;;5116504;28;20106;-64
2021/08/15 17:32:30;;;;;;;23.80;9.73;;;;;;;;;;5106648;28;20124;-64
2021/08/15 17:34:58;;;;;;;24.15;11.48;;;;;;;;;;5078266;28;20478;-64
2021/08/15 17:37:29;;;;;;;20.80;10.93;;;;;;;;;;5096139;28;20032;-62
2021/08/15 17:39:57;;;;;;;19.13;8.37;;;;;;;;;;5077716;28;20115;-62
2021/08/15 17:42:26;;;;;;;9.57;6.15;;;;;;;;;;5090969;28;20473;-62
2021/08/15 17:44:59;;;;;;;5.95;5.30;;;;;;;;;;5116154;28;20043;-62
2021/08/15 17:47:26;;;;;;;5.55;5.10;;;;;;;;;;5098357;28;20055;-62
2021/08/15 17:49:52;;;;;;;10.25;5.25;;;;;;;;;;5097689;28;20553;-62
2021/08/15 17:52:18;;;;;;;6.03;5.10;;;;;;;;;;5097726;28;20040;-62
2021/08/15 17:54:44;;;;;;;6.43;5.13;;;;;;;;;;5079709;28;20111;-62
2021/08/15 17:57:14;;;;;;;6.13;5.55;;;;;;;;;;5115959;28;20040;-61
2021/08/15 17:59:40;;;;;;;9.50;5.65;;;;;;;;;;5097491;28;20099;-61
2021/08/15 18:02:06;;;;;;;5.53;5.03;;;;;;;;;;5115741;28;20119;-62
2021/08/15 18:04:31;;;;;;;5.95;5.32;;;;;;;;;;5115286;28;20039;-63
2021/08/15 18:06:57;;;;;;;6.72;5.07;;;;;;;;;;5097888;28;20020;-61
2021/08/15 18:09:23;;;;;;;7.20;5.43;;;;;;;;;;5115445;28;20044;-62
2021/08/15 18:11:48;;;;;;;6.15;4.90;;;;;;;;;;5115777;28;20032;-61
2021/08/15 18:14:15;;;;;;;4.97;4.55;;;;;;;;;;5116020;28;20036;-62
2021/08/15 18:16:40;;;;;;;6.97;5.50;;;;;;;;;;5115429;28;20044;-61
2021/08/15 18:19:06;;;;;;;5.60;4.85;;;;;;;;;;5115849;28;20040;-62
2021/08/15 18:21:32;;;;;;;9.43;5.88;;;;;;;;;;5115547;28;20496;-61
2021/08/15 18:23:57;;;;;;;6.63;5.00;;;;;;;;;;5115545;28;20114;-62
2021/08/15 18:26:24;;;;;;;7.05;4.90;;;;;;;;;;5115850;28;20107;-61
2021/08/15 18:28:50;;;;;;;5.63;5.03;;;;;;;;;;5115700;28;20039;-65
2021/08/15 18:31:16;;;;;;;6.40;5.75;;;;;;;;;;5115679;28;20064;-61
2021/08/15 18:33:41;;;;;;;5.57;4.97;;;;;;;;;;5115506;28;20032;-62
2021/08/15 18:36:07;;;;;;;6.20;5.00;;;;;;;;;;5115289;28;20028;-62
2021/08/15 18:38:33;;;;;;;5.20;4.80;;;;;;;;;;5115322;28;20074;-62
2021/08/15 18:40:59;;;;;;;5.20;4.47;;;;;;;;;;5115191;28;20053;-62
2021/08/15 18:43:24;;;;;;;9.07;4.90;;;;;;;;;;5115034;28;20082;-62
2021/08/15 18:45:52;;;;;;;5.32;4.82;;;;;;;;;;5115280;28;20019;-62
2021/08/15 18:48:18;;;;;;;5.50;3.97;;;;;;;;;;5115339;28;20032;-61
2021/08/15 18:50:43;;;;;;;7.35;4.93;;;;;;;;;;5105074;28;20024;-61
2021/08/15 18:53:09;;;;;;;8.95;4.50;;;;;;;;;;5076562;28;20497;-61
2021/08/15 18:55:35;;;;;;;5.63;4.90;;;;;;;;;;5076656;28;20485;-61
2021/08/15 18:58:00;;;;;;;7.30;4.75;;;;;;;;;;5094620;28;20032;-62
2021/08/15 19:00:26;;;;;;;7.55;4.90;;;;;;;;;;5094214;28;20024;-64
2021/08/15 19:02:51;;;;;;;5.95;5.35;;;;;;;;;;5094380;28;20175;-62
2021/08/15 19:05:17;;;;;;;5.95;5.45;;;;;;;;;;5094529;28;20118;-62
2021/08/15 19:07:42;;;;;;;5.82;5.28;;;;;;;;;;5076056;28;20051;-61
2021/08/15 19:10:10;;;;;;;6.63;5.30;;;;;;;;;;5094597;28;20035;-63
2021/08/15 19:12:35;;;;;;;6.85;5.65;;;;;;;;;;5094314;28;20126;-63